sensor_id;sensor_type;location;lat;lon;timestamp;P1;durP1;ratioP1;P2;durP2;ratioP2
14076;SDS011;7114;51.100;13.998;2023-11-19T00:02:23;12.43;;;5.27;;
14076;SDS011;7114;51.100;13.998;2023-11-19T00:04:49;14.43;;;5.55;;
14076;SDS011;7114;51.100;13.998;2023-11-19T00:07:15;14.43;;;5.57;;
14076;SDS011;7114;51.100;13.998;2023-11-19T00:09:43;13.60;;;5.85;;
14076;SDS011;7114;51.100;13.998;2023-11-19T00:12:09;14.68;;;5.82;;
14076;SDS011;7114;51.100;13.998;2023-11-19T00:14:36;13.37;;;5.70;;
14076;SDS011;7114;51.100;13.998;2023-11-19T00:17:02;16.10;;;6.32;;
14076;SDS011;7114;51.100;13.998;2023-11-19T00:19:29;15.55;;;6.38;;
14076;SDS011;7114;51.100;13.998;2023-11-19T00:21:55;16.45;;;6.70;;
14076;SDS011;7114;51.100;13.998;2023-11-19T00:24:21;15.20;;;6.22;;
14076;SDS011;7114;51.100;13.998;2023-11-19T00:26:49;14.73;;;6.50;;
14076;SDS011;7114;51.100;13.998;2023-11-19T00:29:15;16.50;;;6.30;;
14076;SDS011;7114;51.100;13.998;2023-11-19T00:31:43;16.42;;;6.32;;
14076;SDS011;7114;51.100;13.998;2023-11-19T00:34:10;14.85;;;6.28;;
14076;SDS011;7114;51.100;13.998;2023-11-19T00:36:36;15.60;;;6.28;;
14076;SDS011;7114;51.100;13.998;2023-11-19T00:39:03;16.43;;;6.33;;
14076;SDS011;7114;51.100;13.998;2023-11-19T00:41:30;15.48;;;6.10;;
14076;SDS011;7114;51.100;13.998;2023-11-19T00:43:58;15.00;;;6.30;;
14076;SDS011;7114;51.100;13.998;2023-11-19T00:46:24;14.80;;;6.40;;
14076;SDS011;7114;51.100;13.998;2023-11-19T00:48:51;15.32;;;6.63;;
14076;SDS011;7114;51.100;13.998;2023-11-19T00:51:18;13.37;;;6.03;;
14076;SDS011;7114;51.100;13.998;2023-11-19T00:53:43;14.40;;;6.10;;
14076;SDS011;7114;51.100;13.998;2023-11-19T00:56:10;13.63;;;5.47;;
14076;SDS011;7114;51.100;13.998;2023-11-19T00:58:37;13.20;;;5.82;;
14076;SDS011;7114;51.100;13.998;2023-11-19T01:01:05;12.53;;;5.20;;
14076;SDS011;7114;51.100;13.998;2023-11-19T01:03:31;13.88;;;5.70;;
14076;SDS011;7114;51.100;13.998;2023-11-19T01:05:58;13.55;;;5.72;;
14076;SDS011;7114;51.100;13.998;2023-11-19T01:08:27;12.73;;;5.50;;
14076;SDS011;7114;51.100;13.998;2023-11-19T01:10:53;12.48;;;5.28;;
14076;SDS011;7114;51.100;13.998;2023-11-19T01:13:20;13.23;;;5.10;;
14076;SDS011;7114;51.100;13.998;2023-11-19T01:15:46;12.25;;;5.00;;
14076;SDS011;7114;51.100;13.998;2023-11-19T01:18:14;12.88;;;5.30;;
14076;SDS011;7114;51.100;13.998;2023-11-19T01:20:41;13.55;;;5.03;;
14076;SDS011;7114;51.100;13.998;2023-11-19T01:23:08;13.80;;;5.40;;
14076;SDS011;7114;51.100;13.998;2023-11-19T01:25:34;11.87;;;5.03;;
14076;SDS011;7114;51.100;13.998;2023-11-19T01:28:02;12.77;;;5.07;;
14076;SDS011;7114;51.100;13.998;2023-11-19T01:30:29;11.20;;;4.82;;
14076;SDS011;7114;51.100;13.998;2023-11-19T01:32:56;12.90;;;5.07;;
14076;SDS011;7114;51.100;13.998;2023-11-19T01:35:23;12.65;;;4.63;;
14076;SDS011;7114;51.100;13.998;2023-11-19T01:37:50;11.10;;;4.67;;
14076;SDS011;7114;51.100;13.998;2023-11-19T01:40:19;11.68;;;4.68;;
14076;SDS011;7114;51.100;13.998;2023-11-19T01:42:46;10.65;;;4.43;;
14076;SDS011;7114;51.100;13.998;2023-11-19T01:45:19;11.73;;;4.60;;
14076;SDS011;7114;51.100;13.998;2023-11-19T01:47:49;10.90;;;4.53;;
14076;SDS011;7114;51.100;13.998;2023-11-19T01:50:16;9.60;;;3.97;;
14076;SDS011;7114;51.100;13.998;2023-11-19T01:52:45;10.95;;;4.15;;
14076;SDS011;7114;51.100;13.998;2023-11-19T01:55:12;10.65;;;4.25;;
14076;SDS011;7114;51.100;13.998;2023-11-19T01:57:38;11.07;;;4.38;;
14076;SDS011;7114;51.100;13.998;2023-11-19T02:00:06;11.60;;;4.40;;
14076;SDS011;7114;51.100;13.998;2023-11-19T02:02:36;10.13;;;3.97;;
14076;SDS011;7114;51.100;13.998;2023-11-19T02:05:02;9.88;;;4.25;;
14076;SDS011;7114;51.100;13.998;2023-11-19T02:07:29;11.10;;;4.00;;
14076;SDS011;7114;51.100;13.998;2023-11-19T02:09:57;10.40;;;4.10;;
14076;SDS011;7114;51.100;13.998;2023-11-19T02:12:24;9.38;;;3.95;;
14076;SDS011;7114;51.100;13.998;2023-11-19T02:14:50;10.83;;;4.33;;
14076;SDS011;7114;51.100;13.998;2023-11-19T02:17:26;9.73;;;3.83;;
14076;SDS011;7114;51.100;13.998;2023-11-19T02:19:53;9.73;;;3.80;;
14076;SDS011;7114;51.100;13.998;2023-11-19T02:22:19;9.50;;;3.90;;
14076;SDS011;7114;51.100;13.998;2023-11-19T02:24:46;9.32;;;3.60;;
14076;SDS011;7114;51.100;13.998;2023-11-19T02:27:16;10.10;;;3.53;;
14076;SDS011;7114;51.100;13.998;2023-11-19T02:29:48;10.10;;;3.88;;
14076;SDS011;7114;51.100;13.998;2023-11-19T02:32:15;9.88;;;3.60;;
14076;SDS011;7114;51.100;13.998;2023-11-19T02:34:41;9.13;;;3.63;;
14076;SDS011;7114;51.100;13.998;2023-11-19T02:37:08;10.70;;;3.70;;
14076;SDS011;7114;51.100;13.998;2023-11-19T02:39:35;8.80;;;3.20;;
14076;SDS011;7114;51.100;13.998;2023-11-19T02:42:01;10.07;;;3.70;;
14076;SDS011;7114;51.100;13.998;2023-11-19T02:44:28;9.90;;;3.38;;
14076;SDS011;7114;51.100;13.998;2023-11-19T02:46:56;9.50;;;3.50;;
14076;SDS011;7114;51.100;13.998;2023-11-19T02:49:24;9.32;;;3.35;;
14076;SDS011;7114;51.100;13.998;2023-11-19T02:51:51;9.10;;;3.60;;
14076;SDS011;7114;51.100;13.998;2023-11-19T02:54:17;8.38;;;3.17;;
14076;SDS011;7114;51.100;13.998;2023-11-19T02:56:44;8.88;;;3.25;;
14076;SDS011;7114;51.100;13.998;2023-11-19T02:59:12;9.38;;;3.10;;
14076;SDS011;7114;51.100;13.998;2023-11-19T03:01:52;8.93;;;3.08;;
14076;SDS011;7114;51.100;13.998;2023-11-19T03:04:19;8.90;;;2.97;;
14076;SDS011;7114;51.100;13.998;2023-11-19T03:06:48;9.43;;;3.10;;
14076;SDS011;7114;51.100;13.998;2023-11-19T03:09:14;7.57;;;2.42;;
14076;SDS011;7114;51.100;13.998;2023-11-19T03:11:40;7.55;;;2.50;;
14076;SDS011;7114;51.100;13.998;2023-11-19T03:14:07;7.30;;;2.58;;
14076;SDS011;7114;51.100;13.998;2023-11-19T03:16:33;7.87;;;2.80;;
14076;SDS011;7114;51.100;13.998;2023-11-19T03:18:59;7.93;;;2.05;;
14076;SDS011;7114;51.100;13.998;2023-11-19T03:21:30;7.05;;;2.03;;
14076;SDS011;7114;51.100;13.998;2023-11-19T03:23:57;7.57;;;2.10;;
14076;SDS011;7114;51.100;13.998;2023-11-19T03:26:25;8.73;;;2.38;;
14076;SDS011;7114;51.100;13.998;2023-11-19T03:28:51;8.03;;;1.93;;
14076;SDS011;7114;51.100;13.998;2023-11-19T03:31:18;7.00;;;2.20;;
14076;SDS011;7114;51.100;13.998;2023-11-19T03:33:45;7.30;;;1.90;;
14076;SDS011;7114;51.100;13.998;2023-11-19T03:36:11;6.60;;;1.60;;
14076;SDS011;7114;51.100;13.998;2023-11-19T03:38:39;6.88;;;1.60;;
14076;SDS011;7114;51.100;13.998;2023-11-19T03:41:10;6.63;;;1.53;;
14076;SDS011;7114;51.100;13.998;2023-11-19T03:43:36;6.47;;;1.50;;
14076;SDS011;7114;51.100;13.998;2023-11-19T03:46:03;6.38;;;1.70;;
14076;SDS011;7114;51.100;13.998;2023-11-19T03:48:30;7.85;;;1.70;;
14076;SDS011;7114;51.100;13.998;2023-11-19T03:50:57;6.72;;;1.83;;
14076;SDS011;7114;51.100;13.998;2023-11-19T03:53:23;6.23;;;1.70;;
14076;SDS011;7114;51.100;13.998;2023-11-19T03:55:51;6.93;;;1.83;;
14076;SDS011;7114;51.100;13.998;2023-11-19T03:58:17;6.85;;;2.05;;
14076;SDS011;7114;51.100;13.998;2023-11-19T04:00:44;6.78;;;1.77;;
14076;SDS011;7114;51.100;13.998;2023-11-19T04:03:10;6.80;;;2.10;;
14076;SDS011;7114;51.100;13.998;2023-11-19T04:05:36;7.47;;;1.80;;
14076;SDS011;7114;51.100;13.998;2023-11-19T04:08:03;6.57;;;1.90;;
14076;SDS011;7114;51.100;13.998;2023-11-19T04:10:30;6.75;;;1.90;;
14076;SDS011;7114;51.100;13.998;2023-11-19T04:12:58;7.25;;;2.00;;
14076;SDS011;7114;51.100;13.998;2023-11-19T04:15:24;6.75;;;1.92;;
14076;SDS011;7114;51.100;13.998;2023-11-19T04:17:50;7.87;;;1.97;;
14076;SDS011;7114;51.100;13.998;2023-11-19T04:20:17;6.70;;;2.13;;
14076;SDS011;7114;51.100;13.998;2023-11-19T04:22:43;7.28;;;2.00;;
14076;SDS011;7114;51.100;13.998;2023-11-19T04:25:09;6.90;;;2.08;;
14076;SDS011;7114;51.100;13.998;2023-11-19T04:27:37;7.10;;;1.98;;
14076;SDS011;7114;51.100;13.998;2023-11-19T04:30:05;6.83;;;1.93;;
14076;SDS011;7114;51.100;13.998;2023-11-19T04:32:33;8.38;;;2.15;;
14076;SDS011;7114;51.100;13.998;2023-11-19T04:35:00;7.57;;;2.20;;
14076;SDS011;7114;51.100;13.998;2023-11-19T04:37:26;6.75;;;1.85;;
14076;SDS011;7114;51.100;13.998;2023-11-19T04:39:52;7.72;;;2.13;;
14076;SDS011;7114;51.100;13.998;2023-11-19T04:42:19;7.73;;;1.83;;
14076;SDS011;7114;51.100;13.998;2023-11-19T04:44:45;7.47;;;2.20;;
14076;SDS011;7114;51.100;13.998;2023-11-19T04:47:12;6.32;;;1.92;;
14076;SDS011;7114;51.100;13.998;2023-11-19T04:49:40;6.72;;;2.10;;
14076;SDS011;7114;51.100;13.998;2023-11-19T04:52:07;7.18;;;2.30;;
14076;SDS011;7114;51.100;13.998;2023-11-19T04:54:34;7.43;;;2.27;;
14076;SDS011;7114;51.100;13.998;2023-11-19T04:57:00;6.95;;;2.40;;
14076;SDS011;7114;51.100;13.998;2023-11-19T04:59:26;7.75;;;2.30;;
14076;SDS011;7114;51.100;13.998;2023-11-19T05:01:53;7.00;;;2.10;;
14076;SDS011;7114;51.100;13.998;2023-11-19T05:04:20;7.93;;;2.50;;
14076;SDS011;7114;51.100;13.998;2023-11-19T05:06:47;7.37;;;2.40;;
14076;SDS011;7114;51.100;13.998;2023-11-19T05:09:13;7.18;;;2.58;;
14076;SDS011;7114;51.100;13.998;2023-11-19T05:11:39;7.47;;;2.30;;
14076;SDS011;7114;51.100;13.998;2023-11-19T05:14:06;7.38;;;2.20;;
14076;SDS011;7114;51.100;13.998;2023-11-19T05:16:34;7.63;;;2.50;;
14076;SDS011;7114;51.100;13.998;2023-11-19T05:19:00;8.27;;;2.50;;
14076;SDS011;7114;51.100;13.998;2023-11-19T05:21:28;9.07;;;2.60;;
14076;SDS011;7114;51.100;13.998;2023-11-19T05:23:54;8.95;;;2.72;;
14076;SDS011;7114;51.100;13.998;2023-11-19T05:26:22;7.38;;;2.63;;
14076;SDS011;7114;51.100;13.998;2023-11-19T05:28:50;8.48;;;2.50;;
14076;SDS011;7114;51.100;13.998;2023-11-19T05:31:17;8.50;;;3.00;;
14076;SDS011;7114;51.100;13.998;2023-11-19T05:33:44;7.38;;;2.60;;
14076;SDS011;7114;51.100;13.998;2023-11-19T05:36:12;8.07;;;2.72;;
14076;SDS011;7114;51.100;13.998;2023-11-19T05:38:40;8.43;;;2.50;;
14076;SDS011;7114;51.100;13.998;2023-11-19T05:41:06;8.10;;;2.38;;
14076;SDS011;7114;51.100;13.998;2023-11-19T05:43:32;8.67;;;2.80;;
14076;SDS011;7114;51.100;13.998;2023-11-19T05:45:59;7.25;;;2.20;;
14076;SDS011;7114;51.100;13.998;2023-11-19T05:48:26;8.50;;;2.85;;
14076;SDS011;7114;51.100;13.998;2023-11-19T05:50:52;8.95;;;2.78;;
14076;SDS011;7114;51.100;13.998;2023-11-19T05:53:19;9.57;;;2.60;;
14076;SDS011;7114;51.100;13.998;2023-11-19T05:55:47;8.30;;;2.50;;
14076;SDS011;7114;51.100;13.998;2023-11-19T05:58:19;8.00;;;2.60;;
14076;SDS011;7114;51.100;13.998;2023-11-19T06:00:46;7.80;;;2.58;;
14076;SDS011;7114;51.100;13.998;2023-11-19T06:03:13;7.45;;;2.55;;
14076;SDS011;7114;51.100;13.998;2023-11-19T06:05:39;7.88;;;2.38;;
14076;SDS011;7114;51.100;13.998;2023-11-19T06:08:05;7.40;;;2.37;;
14076;SDS011;7114;51.100;13.998;2023-11-19T06:10:32;7.88;;;2.42;;
14076;SDS011;7114;51.100;13.998;2023-11-19T06:13:00;7.45;;;2.45;;
14076;SDS011;7114;51.100;13.998;2023-11-19T06:15:30;7.57;;;2.38;;
14076;SDS011;7114;51.100;13.998;2023-11-19T06:17:57;7.40;;;2.53;;
14076;SDS011;7114;51.100;13.998;2023-11-19T06:20:25;8.13;;;2.43;;
14076;SDS011;7114;51.100;13.998;2023-11-19T06:22:53;7.68;;;2.55;;
14076;SDS011;7114;51.100;13.998;2023-11-19T06:25:19;8.48;;;2.53;;
14076;SDS011;7114;51.100;13.998;2023-11-19T06:27:46;7.32;;;2.35;;
14076;SDS011;7114;51.100;13.998;2023-11-19T06:30:13;8.60;;;2.17;;
14076;SDS011;7114;51.100;13.998;2023-11-19T06:32:40;6.77;;;2.33;;
14076;SDS011;7114;51.100;13.998;2023-11-19T06:35:06;7.35;;;1.98;;
14076;SDS011;7114;51.100;13.998;2023-11-19T06:37:34;7.05;;;2.17;;
14076;SDS011;7114;51.100;13.998;2023-11-19T06:40:00;8.98;;;2.65;;
14076;SDS011;7114;51.100;13.998;2023-11-19T06:42:27;7.35;;;2.25;;
14076;SDS011;7114;51.100;13.998;2023-11-19T06:44:53;7.13;;;2.10;;
14076;SDS011;7114;51.100;13.998;2023-11-19T06:47:24;6.70;;;1.92;;
14076;SDS011;7114;51.100;13.998;2023-11-19T06:49:51;7.40;;;2.25;;
14076;SDS011;7114;51.100;13.998;2023-11-19T06:52:18;6.68;;;2.00;;
14076;SDS011;7114;51.100;13.998;2023-11-19T06:54:44;6.90;;;2.08;;
14076;SDS011;7114;51.100;13.998;2023-11-19T06:57:11;6.70;;;1.90;;
14076;SDS011;7114;51.100;13.998;2023-11-19T06:59:37;7.15;;;2.08;;
14076;SDS011;7114;51.100;13.998;2023-11-19T07:02:04;6.63;;;2.03;;
14076;SDS011;7114;51.100;13.998;2023-11-19T07:04:32;5.95;;;1.73;;
14076;SDS011;7114;51.100;13.998;2023-11-19T07:06:59;6.75;;;1.85;;
14076;SDS011;7114;51.100;13.998;2023-11-19T07:09:25;6.77;;;2.00;;
14076;SDS011;7114;51.100;13.998;2023-11-19T07:11:52;6.00;;;1.67;;
14076;SDS011;7114;51.100;13.998;2023-11-19T07:14:18;6.45;;;1.65;;
14076;SDS011;7114;51.100;13.998;2023-11-19T07:16:45;6.75;;;2.10;;
14076;SDS011;7114;51.100;13.998;2023-11-19T07:19:11;6.75;;;1.90;;
14076;SDS011;7114;51.100;13.998;2023-11-19T07:21:40;7.93;;;1.67;;
14076;SDS011;7114;51.100;13.998;2023-11-19T07:24:09;6.75;;;1.85;;
14076;SDS011;7114;51.100;13.998;2023-11-19T07:26:35;6.85;;;1.83;;
14076;SDS011;7114;51.100;13.998;2023-11-19T07:29:02;6.53;;;1.75;;
14076;SDS011;7114;51.100;13.998;2023-11-19T07:31:32;6.28;;;1.55;;
14076;SDS011;7114;51.100;13.998;2023-11-19T07:33:58;6.57;;;1.80;;
14076;SDS011;7114;51.100;13.998;2023-11-19T07:36:25;6.10;;;1.50;;
14076;SDS011;7114;51.100;13.998;2023-11-19T07:38:52;5.38;;;1.33;;
14076;SDS011;7114;51.100;13.998;2023-11-19T07:41:22;6.38;;;1.70;;
14076;SDS011;7114;51.100;13.998;2023-11-19T07:43:50;6.28;;;1.77;;
14076;SDS011;7114;51.100;13.998;2023-11-19T07:46:17;6.70;;;1.90;;
14076;SDS011;7114;51.100;13.998;2023-11-19T07:48:44;6.03;;;1.63;;
14076;SDS011;7114;51.100;13.998;2023-11-19T07:51:12;6.18;;;1.50;;
14076;SDS011;7114;51.100;13.998;2023-11-19T07:53:37;6.17;;;1.67;;
14076;SDS011;7114;51.100;13.998;2023-11-19T07:56:06;6.77;;;1.57;;
14076;SDS011;7114;51.100;13.998;2023-11-19T07:58:33;6.38;;;1.52;;
14076;SDS011;7114;51.100;13.998;2023-11-19T08:01:00;6.65;;;1.60;;
14076;SDS011;7114;51.100;13.998;2023-11-19T08:03:26;6.30;;;1.50;;
14076;SDS011;7114;51.100;13.998;2023-11-19T08:05:54;5.75;;;1.58;;
14076;SDS011;7114;51.100;13.998;2023-11-19T08:08:21;6.33;;;1.60;;
14076;SDS011;7114;51.100;13.998;2023-11-19T08:10:47;6.22;;;1.45;;
14076;SDS011;7114;51.100;13.998;2023-11-19T08:13:15;6.80;;;1.60;;
14076;SDS011;7114;51.100;13.998;2023-11-19T08:15:42;5.85;;;1.77;;
14076;SDS011;7114;51.100;13.998;2023-11-19T08:18:08;6.57;;;1.77;;
14076;SDS011;7114;51.100;13.998;2023-11-19T08:20:34;6.27;;;1.83;;
14076;SDS011;7114;51.100;13.998;2023-11-19T08:23:03;7.07;;;1.65;;
14076;SDS011;7114;51.100;13.998;2023-11-19T08:25:30;6.45;;;1.80;;
14076;SDS011;7114;51.100;13.998;2023-11-19T08:27:58;6.88;;;1.85;;
14076;SDS011;7114;51.100;13.998;2023-11-19T08:30:26;5.60;;;1.38;;
14076;SDS011;7114;51.100;13.998;2023-11-19T08:32:52;6.07;;;1.57;;
14076;SDS011;7114;51.100;13.998;2023-11-19T08:35:18;5.68;;;1.40;;
14076;SDS011;7114;51.100;13.998;2023-11-19T08:37:45;6.50;;;1.80;;
14076;SDS011;7114;51.100;13.998;2023-11-19T08:40:11;5.80;;;1.50;;
14076;SDS011;7114;51.100;13.998;2023-11-19T08:42:39;6.18;;;1.50;;
14076;SDS011;7114;51.100;13.998;2023-11-19T08:45:06;6.57;;;1.80;;
14076;SDS011;7114;51.100;13.998;2023-11-19T08:47:36;6.88;;;1.98;;
14076;SDS011;7114;51.100;13.998;2023-11-19T08:50:02;6.75;;;2.00;;
14076;SDS011;7114;51.100;13.998;2023-11-19T08:52:30;6.93;;;2.08;;
14076;SDS011;7114;51.100;13.998;2023-11-19T08:54:56;6.40;;;1.85;;
14076;SDS011;7114;51.100;13.998;2023-11-19T08:57:23;7.07;;;1.90;;
14076;SDS011;7114;51.100;13.998;2023-11-19T08:59:49;6.05;;;1.60;;
14076;SDS011;7114;51.100;13.998;2023-11-19T09:02:16;7.10;;;2.03;;
14076;SDS011;7114;51.100;13.998;2023-11-19T09:04:44;6.57;;;1.75;;
14076;SDS011;7114;51.100;13.998;2023-11-19T09:07:11;6.18;;;1.70;;
14076;SDS011;7114;51.100;13.998;2023-11-19T09:09:37;5.73;;;1.60;;
14076;SDS011;7114;51.100;13.998;2023-11-19T09:12:04;5.60;;;1.48;;
14076;SDS011;7114;51.100;13.998;2023-11-19T09:14:31;5.40;;;1.58;;
14076;SDS011;7114;51.100;13.998;2023-11-19T09:16:57;6.03;;;1.77;;
14076;SDS011;7114;51.100;13.998;2023-11-19T09:19:24;5.88;;;1.60;;
14076;SDS011;7114;51.100;13.998;2023-11-19T09:21:52;6.43;;;1.30;;
14076;SDS011;7114;51.100;13.998;2023-11-19T09:24:18;5.93;;;1.60;;
14076;SDS011;7114;51.100;13.998;2023-11-19T09:26:45;5.60;;;1.40;;
14076;SDS011;7114;51.100;13.998;2023-11-19T09:29:11;6.00;;;1.40;;
14076;SDS011;7114;51.100;13.998;2023-11-19T09:31:39;5.90;;;1.52;;
14076;SDS011;7114;51.100;13.998;2023-11-19T09:34:05;6.47;;;1.60;;
14076;SDS011;7114;51.100;13.998;2023-11-19T09:36:32;7.82;;;1.63;;
14076;SDS011;7114;51.100;13.998;2023-11-19T09:39:00;6.22;;;1.60;;
14076;SDS011;7114;51.100;13.998;2023-11-19T09:41:27;6.70;;;1.75;;
14076;SDS011;7114;51.100;13.998;2023-11-19T09:43:53;7.45;;;2.20;;
14076;SDS011;7114;51.100;13.998;2023-11-19T09:46:20;8.17;;;2.30;;
14076;SDS011;7114;51.100;13.998;2023-11-19T09:48:49;6.57;;;1.80;;
14076;SDS011;7114;51.100;13.998;2023-11-19T09:51:19;6.95;;;1.90;;
14076;SDS011;7114;51.100;13.998;2023-11-19T09:53:46;6.03;;;1.50;;
14076;SDS011;7114;51.100;13.998;2023-11-19T09:56:13;6.57;;;1.40;;
14076;SDS011;7114;51.100;13.998;2023-11-19T09:58:41;5.10;;;0.70;;
14076;SDS011;7114;51.100;13.998;2023-11-19T10:01:08;4.50;;;0.75;;
14076;SDS011;7114;51.100;13.998;2023-11-19T10:03:37;5.53;;;0.88;;
14076;SDS011;7114;51.100;13.998;2023-11-19T10:06:05;6.47;;;1.08;;
14076;SDS011;7114;51.100;13.998;2023-11-19T10:08:33;6.38;;;1.08;;
14076;SDS011;7114;51.100;13.998;2023-11-19T10:10:59;5.23;;;1.20;;
14076;SDS011;7114;51.100;13.998;2023-11-19T10:13:27;6.93;;;1.20;;
14076;SDS011;7114;51.100;13.998;2023-11-19T10:15:54;6.30;;;1.17;;
14076;SDS011;7114;51.100;13.998;2023-11-19T10:18:23;5.20;;;0.82;;
14076;SDS011;7114;51.100;13.998;2023-11-19T10:20:50;6.47;;;0.90;;
14076;SDS011;7114;51.100;13.998;2023-11-19T10:23:16;5.77;;;0.70;;
14076;SDS011;7114;51.100;13.998;2023-11-19T10:25:43;5.40;;;0.60;;
14076;SDS011;7114;51.100;13.998;2023-11-19T10:28:09;4.40;;;0.60;;
14076;SDS011;7114;51.100;13.998;2023-11-19T10:30:37;4.93;;;0.52;;
14076;SDS011;7114;51.100;13.998;2023-11-19T10:33:04;4.65;;;0.65;;
14076;SDS011;7114;51.100;13.998;2023-11-19T10:35:31;4.13;;;0.60;;
14076;SDS011;7114;51.100;13.998;2023-11-19T10:37:59;5.05;;;0.68;;
14076;SDS011;7114;51.100;13.998;2023-11-19T10:40:37;4.65;;;0.80;;
14076;SDS011;7114;51.100;13.998;2023-11-19T10:43:04;6.00;;;0.80;;
14076;SDS011;7114;51.100;13.998;2023-11-19T10:45:32;7.10;;;1.10;;
14076;SDS011;7114;51.100;13.998;2023-11-19T10:48:00;4.73;;;0.90;;
14076;SDS011;7114;51.100;13.998;2023-11-19T10:50:29;5.07;;;0.80;;
14076;SDS011;7114;51.100;13.998;2023-11-19T10:52:56;7.03;;;1.08;;
14076;SDS011;7114;51.100;13.998;2023-11-19T10:55:25;4.95;;;0.60;;
14076;SDS011;7114;51.100;13.998;2023-11-19T10:57:53;6.50;;;1.00;;
14076;SDS011;7114;51.100;13.998;2023-11-19T11:00:22;5.80;;;1.03;;
14076;SDS011;7114;51.100;13.998;2023-11-19T11:02:50;9.48;;;1.63;;
14076;SDS011;7114;51.100;13.998;2023-11-19T11:05:18;5.72;;;0.80;;
14076;SDS011;7114;51.100;13.998;2023-11-19T11:07:45;5.70;;;0.85;;
14076;SDS011;7114;51.100;13.998;2023-11-19T11:10:11;7.70;;;0.77;;
14076;SDS011;7114;51.100;13.998;2023-11-19T11:12:39;5.40;;;0.93;;
14076;SDS011;7114;51.100;13.998;2023-11-19T11:15:07;4.85;;;0.70;;
14076;SDS011;7114;51.100;13.998;2023-11-19T11:17:37;6.53;;;0.80;;
14076;SDS011;7114;51.100;13.998;2023-11-19T11:20:05;5.85;;;0.63;;
14076;SDS011;7114;51.100;13.998;2023-11-19T11:22:39;6.18;;;0.60;;
14076;SDS011;7114;51.100;13.998;2023-11-19T11:25:13;8.53;;;0.90;;
14076;SDS011;7114;51.100;13.998;2023-11-19T11:27:48;7.22;;;0.70;;
14076;SDS011;7114;51.100;13.998;2023-11-19T11:30:22;4.03;;;0.50;;
14076;SDS011;7114;51.100;13.998;2023-11-19T11:32:54;6.07;;;0.60;;
14076;SDS011;7114;51.100;13.998;2023-11-19T11:35:28;5.65;;;0.60;;
14076;SDS011;7114;51.100;13.998;2023-11-19T11:38:00;6.60;;;0.80;;
14076;SDS011;7114;51.100;13.998;2023-11-19T11:40:28;6.85;;;0.73;;
14076;SDS011;7114;51.100;13.998;2023-11-19T11:42:54;5.93;;;0.60;;
14076;SDS011;7114;51.100;13.998;2023-11-19T11:45:34;7.43;;;0.60;;
14076;SDS011;7114;51.100;13.998;2023-11-19T11:48:08;5.15;;;0.68;;
14076;SDS011;7114;51.100;13.998;2023-11-19T11:50:36;7.10;;;0.93;;
14076;SDS011;7114;51.100;13.998;2023-11-19T11:53:17;5.13;;;0.80;;
14076;SDS011;7114;51.100;13.998;2023-11-19T11:55:52;5.63;;;0.50;;
14076;SDS011;7114;51.100;13.998;2023-11-19T11:58:21;5.72;;;0.40;;
14076;SDS011;7114;51.100;13.998;2023-11-19T12:00:51;5.90;;;0.60;;
14076;SDS011;7114;51.100;13.998;2023-11-19T12:03:19;5.37;;;0.60;;
14076;SDS011;7114;51.100;13.998;2023-11-19T12:05:47;4.35;;;0.52;;
14076;SDS011;7114;51.100;13.998;2023-11-19T12:08:14;4.90;;;0.60;;
14076;SDS011;7114;51.100;13.998;2023-11-19T12:10:45;4.20;;;0.60;;
14076;SDS011;7114;51.100;13.998;2023-11-19T12:13:13;5.80;;;0.70;;
14076;SDS011;7114;51.100;13.998;2023-11-19T12:18:33;6.90;;;0.85;;
14076;SDS011;7114;51.100;13.998;2023-11-19T12:21:00;6.25;;;0.82;;
14076;SDS011;7114;51.100;13.998;2023-11-19T12:23:29;7.07;;;1.00;;
14076;SDS011;7114;51.100;13.998;2023-11-19T12:25:55;8.25;;;1.35;;
14076;SDS011;7114;51.100;13.998;2023-11-19T12:28:22;8.40;;;1.07;;
14076;SDS011;7114;51.100;13.998;2023-11-19T12:30:49;7.32;;;1.80;;
14076;SDS011;7114;51.100;13.998;2023-11-19T12:33:16;7.05;;;1.75;;
14076;SDS011;7114;51.100;13.998;2023-11-19T12:35:43;8.60;;;1.52;;
14076;SDS011;7114;51.100;13.998;2023-11-19T12:38:18;9.60;;;1.88;;
14076;SDS011;7114;51.100;13.998;2023-11-19T12:40:46;9.17;;;2.13;;
14076;SDS011;7114;51.100;13.998;2023-11-19T12:43:20;7.82;;;1.67;;
14076;SDS011;7114;51.100;13.998;2023-11-19T12:45:47;8.52;;;1.60;;
14076;SDS011;7114;51.100;13.998;2023-11-19T12:48:14;10.60;;;2.40;;
14076;SDS011;7114;51.100;13.998;2023-11-19T12:50:52;9.70;;;2.03;;
14076;SDS011;7114;51.100;13.998;2023-11-19T12:53:19;7.60;;;1.87;;
14076;SDS011;7114;51.100;13.998;2023-11-19T12:55:47;7.05;;;1.30;;
14076;SDS011;7114;51.100;13.998;2023-11-19T12:58:27;7.65;;;1.00;;
14076;SDS011;7114;51.100;13.998;2023-11-19T13:00:58;8.38;;;1.30;;
14076;SDS011;7114;51.100;13.998;2023-11-19T13:03:29;7.88;;;1.88;;
14076;SDS011;7114;51.100;13.998;2023-11-19T13:06:00;6.60;;;1.30;;
14076;SDS011;7114;51.100;13.998;2023-11-19T13:08:27;9.10;;;1.10;;
14076;SDS011;7114;51.100;13.998;2023-11-19T13:10:55;7.75;;;1.45;;
14076;SDS011;7114;51.100;13.998;2023-11-19T13:13:21;8.32;;;1.60;;
14076;SDS011;7114;51.100;13.998;2023-11-19T13:15:48;7.57;;;1.65;;
14076;SDS011;7114;51.100;13.998;2023-11-19T13:18:15;6.10;;;1.20;;
14076;SDS011;7114;51.100;13.998;2023-11-19T13:20:42;8.07;;;1.40;;
14076;SDS011;7114;51.100;13.998;2023-11-19T13:23:08;8.15;;;1.08;;
14076;SDS011;7114;51.100;13.998;2023-11-19T13:25:35;8.65;;;1.27;;
14076;SDS011;7114;51.100;13.998;2023-11-19T13:28:03;12.00;;;1.52;;
14076;SDS011;7114;51.100;13.998;2023-11-19T13:30:31;8.43;;;1.33;;
14076;SDS011;7114;51.100;13.998;2023-11-19T13:32:57;9.80;;;2.03;;
14076;SDS011;7114;51.100;13.998;2023-11-19T13:35:23;7.55;;;1.58;;
14076;SDS011;7114;51.100;13.998;2023-11-19T13:37:50;8.73;;;1.92;;
14076;SDS011;7114;51.100;13.998;2023-11-19T13:40:17;10.18;;;1.83;;
14076;SDS011;7114;51.100;13.998;2023-11-19T13:42:44;10.57;;;2.47;;
14076;SDS011;7114;51.100;13.998;2023-11-19T13:45:12;9.10;;;2.33;;
14076;SDS011;7114;51.100;13.998;2023-11-19T13:47:39;11.45;;;2.58;;
14076;SDS011;7114;51.100;13.998;2023-11-19T13:50:08;12.02;;;3.42;;
14076;SDS011;7114;51.100;13.998;2023-11-19T13:52:35;12.60;;;2.88;;
14076;SDS011;7114;51.100;13.998;2023-11-19T13:55:03;11.00;;;3.00;;
14076;SDS011;7114;51.100;13.998;2023-11-19T13:57:31;11.98;;;2.80;;
14076;SDS011;7114;51.100;13.998;2023-11-19T13:59:57;12.13;;;2.90;;
14076;SDS011;7114;51.100;13.998;2023-11-19T14:02:25;13.75;;;2.47;;
14076;SDS011;7114;51.100;13.998;2023-11-19T14:04:51;8.98;;;2.25;;
14076;SDS011;7114;51.100;13.998;2023-11-19T14:07:17;9.67;;;2.60;;
14076;SDS011;7114;51.100;13.998;2023-11-19T14:09:44;10.52;;;2.60;;
14076;SDS011;7114;51.100;13.998;2023-11-19T14:12:10;9.40;;;2.33;;
14076;SDS011;7114;51.100;13.998;2023-11-19T14:14:37;9.57;;;2.20;;
14076;SDS011;7114;51.100;13.998;2023-11-19T14:17:04;9.68;;;2.10;;
14076;SDS011;7114;51.100;13.998;2023-11-19T14:19:32;11.03;;;1.90;;
14076;SDS011;7114;51.100;13.998;2023-11-19T14:21:58;9.45;;;1.67;;
14076;SDS011;7114;51.100;13.998;2023-11-19T14:24:25;10.82;;;1.83;;
14076;SDS011;7114;51.100;13.998;2023-11-19T14:26:52;10.07;;;2.20;;
14076;SDS011;7114;51.100;13.998;2023-11-19T14:29:18;10.38;;;1.92;;
14076;SDS011;7114;51.100;13.998;2023-11-19T14:31:44;26.60;;;8.00;;
14076;SDS011;7114;51.100;13.998;2023-11-19T14:34:11;19.33;;;5.22;;
14076;SDS011;7114;51.100;13.998;2023-11-19T14:36:38;16.08;;;3.65;;
14076;SDS011;7114;51.100;13.998;2023-11-19T14:39:05;13.82;;;2.88;;
14076;SDS011;7114;51.100;13.998;2023-11-19T14:41:32;12.95;;;2.20;;
14076;SDS011;7114;51.100;13.998;2023-11-19T14:43:58;16.27;;;4.27;;
14076;SDS011;7114;51.100;13.998;2023-11-19T14:46:26;14.60;;;4.50;;
14076;SDS011;7114;51.100;13.998;2023-11-19T14:48:52;20.08;;;5.70;;
14076;SDS011;7114;51.100;13.998;2023-11-19T14:51:18;21.60;;;5.72;;